createdAt,value
2022-09-25T00:00:04.312Z,11.69
2022-09-25T00:01:04.400Z,11.69
2022-09-25T00:02:04.465Z,11.69
2022-09-25T00:03:04.340Z,11.69
2022-09-25T00:04:04.402Z,11.69
2022-09-25T00:05:04.457Z,11.69
2022-09-25T00:06:03.507Z,11.69
2022-09-25T00:07:03.590Z,11.69
2022-09-25T00:08:03.495Z,11.69
2022-09-25T00:09:03.501Z,11.69
2022-09-25T00:10:03.859Z,11.69
2022-09-25T00:11:03.980Z,11.69
2022-09-25T00:12:04.066Z,11.69
2022-09-25T00:13:04.068Z,11.69
2022-09-25T00:14:04.145Z,11.69
2022-09-25T00:15:04.147Z,11.62
2022-09-25T00:16:04.141Z,11.62
2022-09-25T00:17:04.208Z,11.62
2022-09-25T00:18:04.065Z,11.62
2022-09-25T00:19:04.309Z,11.62
2022-09-25T00:20:04.224Z,11.62
2022-09-25T00:21:04.222Z,11.62
2022-09-25T00:22:04.220Z,11.62
2022-09-25T00:23:04.346Z,11.62
2022-09-25T00:24:04.430Z,11.56
2022-09-25T00:25:04.302Z,11.56
2022-09-25T00:26:04.223Z,11.56
2022-09-25T00:27:04.398Z,11.56
2022-09-25T00:28:04.378Z,11.56
2022-09-25T00:29:03.503Z,11.56
2022-09-25T00:30:03.578Z,11.56
2022-09-25T00:31:03.743Z,11.50
2022-09-25T00:32:03.832Z,11.56
2022-09-25T00:33:03.499Z,11.50
2022-09-25T00:34:03.611Z,11.56
2022-09-25T00:35:03.674Z,11.56
2022-09-25T00:36:03.665Z,11.56
2022-09-25T00:37:03.668Z,11.50
2022-09-25T00:38:03.652Z,11.50
2022-09-25T00:39:04.474Z,11.50
2022-09-25T00:40:04.466Z,11.50
2022-09-25T00:41:03.502Z,11.50
2022-09-25T00:42:03.585Z,11.50
2022-09-25T00:43:03.506Z,11.44
2022-09-25T00:44:03.521Z,11.44
2022-09-25T00:45:03.601Z,11.44
2022-09-25T00:46:03.648Z,11.44
2022-09-25T00:47:03.597Z,11.44
2022-09-25T00:48:03.592Z,11.38
2022-09-25T00:49:03.519Z,11.38
2022-09-25T00:50:03.612Z,11.38
2022-09-25T00:51:03.498Z,11.38
2022-09-25T00:52:03.671Z,11.38
2022-09-25T00:53:03.524Z,11.38
2022-09-25T00:54:03.643Z,11.31
2022-09-25T00:55:03.586Z,11.31
2022-09-25T00:56:03.504Z,11.31
2022-09-25T00:57:03.509Z,11.31
2022-09-25T00:58:03.557Z,11.31
2022-09-25T00:59:04.466Z,11.25
2022-09-25T01:00:03.502Z,11.25
2022-09-25T01:01:03.554Z,11.25
2022-09-25T01:02:03.538Z,11.19
2022-09-25T01:03:03.591Z,11.19
2022-09-25T01:04:03.731Z,11.19
2022-09-25T01:05:03.688Z,11.19
2022-09-25T01:06:03.748Z,11.19
2022-09-25T01:07:03.825Z,11.19
2022-09-25T01:08:03.827Z,11.19
2022-09-25T01:09:03.848Z,11.19
2022-09-25T01:10:03.908Z,11.19
2022-09-25T01:11:03.829Z,11.12
2022-09-25T01:12:03.833Z,11.12
2022-09-25T01:13:03.901Z,11.12
2022-09-25T01:14:03.955Z,11.12
2022-09-25T01:15:03.916Z,11.06
2022-09-25T01:16:03.974Z,11.12
2022-09-25T01:17:04.049Z,11.06
2022-09-25T01:18:04.055Z,11.12
2022-09-25T01:19:04.152Z,11.06
2022-09-25T01:20:04.141Z,11.06
2022-09-25T01:21:04.147Z,11.06
2022-09-25T01:22:04.139Z,11.06
2022-09-25T01:23:04.305Z,11.06
2022-09-25T01:24:04.332Z,11.06
2022-09-25T01:25:04.334Z,11.06
2022-09-25T01:26:04.306Z,11.00
2022-09-25T01:27:04.403Z,11.00
2022-09-25T01:28:03.514Z,11.00
2022-09-25T01:29:03.576Z,11.00
2022-09-25T01:30:03.525Z,11.00
2022-09-25T01:31:03.699Z,11.00
2022-09-25T01:32:03.671Z,11.00
2022-09-25T01:33:03.579Z,11.00
2022-09-25T01:34:03.637Z,11.00
2022-09-25T01:35:03.663Z,10.94
2022-09-25T01:36:03.750Z,10.94
2022-09-25T01:37:04.373Z,10.94
2022-09-25T01:38:04.395Z,10.94
2022-09-25T01:39:03.597Z,10.94
2022-09-25T01:40:03.587Z,10.94
2022-09-25T01:41:03.582Z,10.94
2022-09-25T01:42:03.664Z,10.94
2022-09-25T01:43:03.661Z,10.88
2022-09-25T01:44:03.774Z,10.88
2022-09-25T01:45:03.852Z,10.88
2022-09-25T01:46:03.892Z,10.81
2022-09-25T01:47:03.836Z,10.81
2022-09-25T01:48:03.913Z,10.81
2022-09-25T01:49:03.842Z,10.75
2022-09-25T01:50:03.823Z,10.75
2022-09-25T01:51:03.827Z,10.75
2022-09-25T01:52:04.009Z,10.75
2022-09-25T01:53:04.077Z,10.75
2022-09-25T01:54:04.111Z,10.75
2022-09-25T01:55:03.988Z,10.75
2022-09-25T01:56:03.991Z,10.75
2022-09-25T01:57:04.069Z,10.75
2022-09-25T01:58:03.979Z,10.75
2022-09-25T01:59:03.987Z,10.75
2022-09-25T02:00:03.977Z,10.69
2022-09-25T02:01:04.200Z,10.69
2022-09-25T02:02:04.193Z,10.69
2022-09-25T02:03:04.166Z,10.69
2022-09-25T02:04:04.116Z,10.69
2022-09-25T02:05:03.824Z,10.69
2022-09-25T02:06:03.749Z,10.69
2022-09-25T02:07:03.904Z,10.62
2022-09-25T02:08:03.989Z,10.62
2022-09-25T02:09:04.084Z,10.62
2022-09-25T02:10:04.059Z,10.62
2022-09-25T02:11:04.143Z,10.62
2022-09-25T02:12:04.303Z,10.56
2022-09-25T02:13:04.467Z,10.56
2022-09-25T02:14:04.479Z,10.56
2022-09-25T02:15:04.460Z,10.56
2022-09-25T02:16:03.586Z,10.56
2022-09-25T02:17:03.607Z,10.50
2022-09-25T02:18:03.584Z,10.50
2022-09-25T02:19:03.666Z,10.50
2022-09-25T02:20:03.755Z,10.50
2022-09-25T02:21:03.747Z,10.50
2022-09-25T02:22:03.830Z,10.50
2022-09-25T02:23:03.834Z,10.44
2022-09-25T02:24:03.813Z,10.44
2022-09-25T02:25:03.844Z,10.44
2022-09-25T02:26:03.821Z,10.44
2022-09-25T02:27:03.819Z,10.44
2022-09-25T02:28:03.910Z,10.44
2022-09-25T02:29:03.902Z,10.38
2022-09-25T02:30:03.999Z,10.38
2022-09-25T02:31:04.096Z,10.38
2022-09-25T02:32:04.147Z,10.38
2022-09-25T02:33:04.143Z,10.38
2022-09-25T02:34:04.325Z,10.38
2022-09-25T02:35:04.138Z,10.38
2022-09-25T02:36:04.234Z,10.38
2022-09-25T02:37:04.306Z,10.31
2022-09-25T02:38:04.229Z,10.31
2022-09-25T02:39:04.226Z,10.31
2022-09-25T02:40:04.213Z,10.31
2022-09-25T02:41:04.316Z,10.31
2022-09-25T02:42:04.378Z,10.31
2022-09-25T02:43:03.517Z,10.31
2022-09-25T02:44:03.549Z,10.31
2022-09-25T02:45:03.601Z,10.25
2022-09-25T02:46:03.629Z,10.25
2022-09-25T02:47:03.746Z,10.25
2022-09-25T02:48:03.667Z,10.25
2022-09-25T02:49:03.751Z,10.25
2022-09-25T02:50:03.825Z,10.25
2022-09-25T02:51:03.827Z,10.25
2022-09-25T02:52:03.901Z,10.25
2022-09-25T02:53:03.985Z,10.25
2022-09-25T02:54:03.952Z,10.25
2022-09-25T02:55:03.901Z,10.25
2022-09-25T02:56:03.831Z,10.25
2022-09-25T02:57:04.446Z,10.19
2022-09-25T02:58:03.983Z,10.25
2022-09-25T02:59:03.982Z,10.25
2022-09-25T03:00:03.987Z,10.19
2022-09-25T03:01:04.100Z,10.19
2022-09-25T03:02:04.108Z,10.19
2022-09-25T03:03:04.064Z,10.19
2022-09-25T03:04:04.145Z,10.19
2022-09-25T03:05:04.229Z,10.19
2022-09-25T03:06:05.109Z,10.19
2022-09-25T03:07:04.061Z,10.19
2022-09-25T03:08:04.230Z,10.19
2022-09-25T03:09:04.233Z,10.19
2022-09-25T03:10:05.184Z,10.19
2022-09-25T03:11:04.479Z,10.19
2022-09-25T03:12:04.458Z,10.19
2022-09-25T03:13:03.597Z,10.19
2022-09-25T03:14:03.671Z,10.19
2022-09-25T03:15:03.668Z,10.19
2022-09-25T03:16:03.733Z,10.19
2022-09-25T03:17:03.752Z,10.19
2022-09-25T03:18:03.752Z,10.19
2022-09-25T03:19:03.743Z,10.19
2022-09-25T03:20:03.830Z,10.19
2022-09-25T03:21:03.824Z,10.19
2022-09-25T03:22:03.906Z,10.19
2022-09-25T03:23:03.903Z,10.19
2022-09-25T03:24:04.118Z,10.19
2022-09-25T03:25:04.155Z,10.19
2022-09-25T03:26:04.166Z,10.19
2022-09-25T03:27:04.149Z,10.19
2022-09-25T03:28:04.234Z,10.19
2022-09-25T03:29:04.315Z,10.19
2022-09-25T03:30:04.402Z,10.12
2022-09-25T03:31:04.433Z,10.12
2022-09-25T03:32:04.392Z,10.19
2022-09-25T03:33:04.481Z,10.19
2022-09-25T03:34:03.646Z,10.19
2022-09-25T03:35:03.595Z,10.19
2022-09-25T03:36:03.579Z,10.19
2022-09-25T03:37:03.680Z,10.19
2022-09-25T03:38:03.661Z,10.12
2022-09-25T03:39:03.658Z,10.12
2022-09-25T03:40:03.655Z,10.12
2022-09-25T03:41:03.766Z,10.12
2022-09-25T03:42:03.748Z,10.12
2022-09-25T03:44:03.858Z,10.19
2022-09-25T03:45:03.907Z,10.19
2022-09-25T03:46:04.007Z,10.19
2022-09-25T03:47:03.814Z,10.19
2022-09-25T03:48:03.994Z,10.19
2022-09-25T03:49:04.067Z,10.19
2022-09-25T03:50:04.133Z,10.19
2022-09-25T03:51:04.242Z,10.19
2022-09-25T03:52:04.297Z,10.19
2022-09-25T03:53:04.381Z,10.19
2022-09-25T03:54:04.539Z,10.19
2022-09-25T03:55:04.474Z,10.12
2022-09-25T03:56:03.522Z,10.12
2022-09-25T03:57:03.579Z,10.12
2022-09-25T03:58:03.609Z,10.19
2022-09-25T03:59:03.596Z,10.19
2022-09-25T04:00:03.585Z,10.19
2022-09-25T04:01:03.785Z,10.12
2022-09-25T04:02:03.611Z,10.12
2022-09-25T04:03:03.712Z,10.12
2022-09-25T04:04:03.952Z,10.12
2022-09-25T04:05:03.903Z,10.19
2022-09-25T04:06:03.898Z,10.19
2022-09-25T04:07:04.014Z,10.19
2022-09-25T04:08:03.989Z,10.19
2022-09-25T04:09:04.068Z,10.19
2022-09-25T04:10:04.063Z,10.19
2022-09-25T04:11:04.066Z,10.19
2022-09-25T04:12:03.980Z,10.19
2022-09-25T04:13:04.145Z,10.19
2022-09-25T04:14:04.154Z,10.19
2022-09-25T04:15:04.057Z,10.19
2022-09-25T04:16:04.236Z,10.12
2022-09-25T04:17:04.314Z,10.12
2022-09-25T04:18:06.213Z,10.12
2022-09-25T04:19:04.385Z,10.12
2022-09-25T04:20:04.399Z,10.12
2022-09-25T04:21:03.520Z,10.12
2022-09-25T04:22:04.459Z,10.12
2022-09-25T04:23:03.671Z,10.12
2022-09-25T04:24:03.746Z,10.12
2022-09-25T04:25:03.997Z,10.12
2022-09-25T04:26:03.908Z,10.12
2022-09-25T04:27:03.905Z,10.12
2022-09-25T04:28:03.911Z,10.12
2022-09-25T04:29:03.913Z,10.12
2022-09-25T04:30:03.977Z,10.19
2022-09-25T04:31:04.273Z,10.19
2022-09-25T04:32:04.231Z,10.19
2022-09-25T04:33:04.232Z,10.19
2022-09-25T04:34:04.361Z,10.19
2022-09-25T04:35:04.384Z,10.19
2022-09-25T04:36:04.318Z,10.19
2022-09-25T04:37:04.382Z,10.19
2022-09-25T04:38:04.457Z,10.19
2022-09-25T04:39:03.589Z,10.19
2022-09-25T04:40:03.509Z,10.19
2022-09-25T04:41:03.590Z,10.19
2022-09-25T04:42:03.584Z,10.19
2022-09-25T04:43:03.664Z,10.19
2022-09-25T04:44:03.771Z,10.19
2022-09-25T04:45:03.746Z,10.19
2022-09-25T04:46:03.872Z,10.12
2022-09-25T04:47:04.161Z,10.19
2022-09-25T04:48:04.146Z,10.19
2022-09-25T04:49:04.149Z,10.19
2022-09-25T04:50:04.137Z,10.19
2022-09-25T04:51:04.231Z,10.19
2022-09-25T04:52:04.323Z,10.19
2022-09-25T04:53:04.278Z,10.19
2022-09-25T04:54:04.528Z,10.19
2022-09-25T04:55:04.466Z,10.25
2022-09-25T04:56:04.466Z,10.25
2022-09-25T04:57:03.589Z,10.25
2022-09-25T04:58:03.669Z,10.25
2022-09-25T04:59:03.676Z,10.25
2022-09-25T05:00:03.765Z,10.25
2022-09-25T05:01:03.944Z,10.25
2022-09-25T05:02:04.112Z,10.25
2022-09-25T05:03:04.092Z,10.25
2022-09-25T05:04:08.459Z,10.25
2022-09-25T05:05:03.899Z,10.25
2022-09-25T05:06:03.984Z,10.25
2022-09-25T05:07:04.075Z,10.25
2022-09-25T05:08:04.075Z,10.31
2022-09-25T05:09:04.070Z,10.31
2022-09-25T05:10:04.100Z,10.31
2022-09-25T05:11:04.239Z,10.31
2022-09-25T05:12:04.307Z,10.31
2022-09-25T05:13:04.319Z,10.31
2022-09-25T05:14:04.392Z,10.38
2022-09-25T05:15:04.473Z,10.31
2022-09-25T05:16:04.501Z,10.38
2022-09-25T05:17:03.585Z,10.31
2022-09-25T05:18:03.502Z,10.38
2022-09-25T05:19:03.493Z,10.38
2022-09-25T05:20:03.499Z,10.38
2022-09-25T05:21:04.468Z,10.38
2022-09-25T05:22:04.549Z,10.38
2022-09-25T05:23:04.487Z,10.38
2022-09-25T05:24:04.522Z,10.38
2022-09-25T05:25:03.510Z,10.38
2022-09-25T05:26:03.604Z,10.38
2022-09-25T05:27:03.671Z,10.44
2022-09-25T05:28:03.600Z,10.44
2022-09-25T05:29:03.585Z,10.44
2022-09-25T05:30:03.668Z,10.44
2022-09-25T05:31:04.141Z,10.44
2022-09-25T05:32:03.912Z,10.44
2022-09-25T05:33:03.821Z,10.44
2022-09-25T05:34:03.937Z,10.50
2022-09-25T05:35:03.909Z,10.50
2022-09-25T05:36:04.069Z,10.50
2022-09-25T05:37:04.152Z,10.50
2022-09-25T05:38:04.059Z,10.50
2022-09-25T05:39:04.312Z,10.50
2022-09-25T05:40:04.143Z,10.50
2022-09-25T05:41:04.317Z,10.50
2022-09-25T05:42:04.312Z,10.50
2022-09-25T05:43:04.557Z,10.56
2022-09-25T05:44:04.424Z,10.56
2022-09-25T05:45:07.496Z,10.56
2022-09-25T05:46:03.705Z,10.56
2022-09-25T05:47:03.754Z,10.56
2022-09-25T05:48:03.824Z,10.56
2022-09-25T05:49:03.747Z,10.56
2022-09-25T05:50:03.744Z,10.56
2022-09-25T05:51:03.831Z,10.62
2022-09-25T05:52:03.819Z,10.62
2022-09-25T05:53:03.840Z,10.62
2022-09-25T05:54:03.909Z,10.62
2022-09-25T05:55:04.010Z,10.62
2022-09-25T05:56:04.075Z,10.69
2022-09-25T05:57:03.910Z,10.69
2022-09-25T05:58:04.149Z,10.69
2022-09-25T05:59:04.081Z,10.69
2022-09-25T06:00:04.157Z,10.69
2022-09-25T06:01:04.237Z,10.69
2022-09-25T06:02:04.205Z,10.75
2022-09-25T06:03:04.101Z,10.75
2022-09-25T06:04:04.403Z,10.75
2022-09-25T06:05:03.585Z,10.75
2022-09-25T06:06:03.663Z,10.75
2022-09-25T06:07:03.669Z,10.81
2022-09-25T06:08:03.594Z,10.81
2022-09-25T06:09:03.586Z,10.81
2022-09-25T06:10:03.530Z,10.81
2022-09-25T06:11:03.584Z,10.81
2022-09-25T06:12:03.749Z,10.88
2022-09-25T06:13:03.679Z,10.88
2022-09-25T06:14:03.747Z,10.88
2022-09-25T06:15:04.005Z,10.94
2022-09-25T06:16:03.994Z,10.94
2022-09-25T06:17:04.075Z,10.94
2022-09-25T06:18:04.076Z,10.88
2022-09-25T06:19:04.165Z,10.94
2022-09-25T06:20:04.225Z,10.94
2022-09-25T06:21:04.161Z,10.94
2022-09-25T06:22:04.232Z,11.00
2022-09-25T06:23:04.094Z,11.00
2022-09-25T06:24:04.197Z,11.00
2022-09-25T06:25:04.145Z,11.00
2022-09-25T06:26:04.152Z,11.00
2022-09-25T06:27:04.147Z,11.06
2022-09-25T06:28:04.220Z,11.06
2022-09-25T06:29:04.302Z,11.06
2022-09-25T06:30:04.231Z,11.12
2022-09-25T06:31:04.500Z,11.12
2022-09-25T06:32:04.225Z,11.12
2022-09-25T06:33:04.306Z,11.19
2022-09-25T06:34:04.480Z,11.19
2022-09-25T06:35:04.465Z,11.19
2022-09-25T06:36:03.587Z,11.19
2022-09-25T06:37:03.510Z,11.25
2022-09-25T06:38:03.513Z,11.25
2022-09-25T06:39:03.506Z,11.25
2022-09-25T06:40:03.515Z,11.31
2022-09-25T06:41:03.652Z,11.31
2022-09-25T06:42:03.586Z,11.31
2022-09-25T06:43:03.600Z,11.38
2022-09-25T06:44:03.638Z,11.38
2022-09-25T06:45:03.512Z,11.38
2022-09-25T06:46:03.770Z,11.44
2022-09-25T06:47:03.583Z,11.44
2022-09-25T06:48:03.594Z,11.50
2022-09-25T06:49:03.578Z,11.50
2022-09-25T06:50:03.663Z,11.50
2022-09-25T06:51:04.466Z,11.50
2022-09-25T06:52:03.583Z,11.50
2022-09-25T06:53:03.753Z,11.56
2022-09-25T06:54:03.734Z,11.56
2022-09-25T06:55:03.664Z,11.62
2022-09-25T06:56:03.760Z,11.62
2022-09-25T06:57:03.690Z,11.62
2022-09-25T06:58:03.609Z,11.69
2022-09-25T06:59:03.673Z,11.75
2022-09-25T07:00:03.683Z,11.75
2022-09-25T07:01:07.712Z,11.75
2022-09-25T07:02:03.791Z,11.81
2022-09-25T07:03:03.740Z,11.81
2022-09-25T07:04:03.796Z,11.88
2022-09-25T07:05:03.742Z,11.94
2022-09-25T07:06:03.749Z,12.00
2022-09-25T07:07:03.819Z,12.06
2022-09-25T07:08:04.004Z,12.12
2022-09-25T07:09:04.149Z,12.19
2022-09-25T07:10:04.179Z,12.25
2022-09-25T07:11:03.509Z,12.31
2022-09-25T07:12:03.680Z,12.44
2022-09-25T07:13:03.748Z,12.56
2022-09-25T07:14:03.721Z,12.69
2022-09-25T07:15:03.833Z,12.75
2022-09-25T07:16:03.778Z,12.88
2022-09-25T07:17:03.826Z,12.94
2022-09-25T07:18:03.824Z,13.06
2022-09-25T07:19:03.913Z,13.12
2022-09-25T07:20:03.832Z,13.19
2022-09-25T07:21:03.912Z,13.31
2022-09-25T07:22:03.902Z,13.38
2022-09-25T07:23:04.066Z,13.44
2022-09-25T07:24:04.350Z,13.50
2022-09-25T07:25:04.151Z,13.56
2022-09-25T07:26:04.140Z,13.62
2022-09-25T07:27:04.238Z,13.75
2022-09-25T07:28:04.227Z,13.75
2022-09-25T07:29:04.234Z,13.81
2022-09-25T07:30:04.318Z,13.81
2022-09-25T07:31:04.331Z,13.88
2022-09-25T07:32:04.218Z,13.88
2022-09-25T07:33:04.305Z,13.94
2022-09-25T07:34:04.340Z,13.94
2022-09-25T07:35:04.223Z,14.00
2022-09-25T07:36:04.403Z,14.00
2022-09-25T07:37:04.474Z,14.00
2022-09-25T07:38:03.827Z,14.06
2022-09-25T07:39:03.916Z,14.06
2022-09-25T07:40:03.838Z,14.12
2022-09-25T07:41:04.318Z,14.12
2022-09-25T07:42:04.316Z,14.19
2022-09-25T07:43:04.480Z,14.19
2022-09-25T07:44:24.711Z,14.25
2022-09-25T07:45:04.063Z,14.31
2022-09-25T07:46:04.369Z,14.38
2022-09-25T07:47:04.233Z,14.38
2022-09-25T07:48:04.309Z,14.44
2022-09-25T07:49:04.468Z,14.50
2022-09-25T07:50:04.393Z,14.56
2022-09-25T07:51:03.508Z,14.56
2022-09-25T07:52:03.670Z,14.62
2022-09-25T07:53:03.593Z,14.69
2022-09-25T07:54:03.659Z,14.75
2022-09-25T07:55:03.670Z,14.81
2022-09-25T07:56:06.412Z,14.88
2022-09-25T07:57:03.657Z,14.94
2022-09-25T07:58:03.762Z,15.00
2022-09-25T07:59:03.911Z,15.06
2022-09-25T08:00:03.832Z,15.12
2022-09-25T08:01:04.015Z,15.25
2022-09-25T08:02:05.290Z,15.31
2022-09-25T08:03:04.061Z,15.38
2022-09-25T08:04:04.127Z,15.50
2022-09-25T08:05:04.143Z,15.56
2022-09-25T08:06:04.239Z,15.69
2022-09-25T08:07:04.146Z,15.75
2022-09-25T08:08:04.144Z,15.81
2022-09-25T08:09:08.200Z,15.88
2022-09-25T08:10:04.227Z,16.00
2022-09-25T08:11:04.322Z,16.06
2022-09-25T08:12:04.404Z,16.19
2022-09-25T08:13:04.391Z,16.25
2022-09-25T08:14:04.435Z,16.38
2022-09-25T08:15:04.492Z,16.44
2022-09-25T08:16:04.421Z,16.56
2022-09-25T08:17:04.381Z,16.62
2022-09-25T08:18:03.519Z,16.75
2022-09-25T08:19:03.595Z,16.81
2022-09-25T08:20:03.595Z,16.94
2022-09-25T08:21:03.590Z,17.00
2022-09-25T08:22:03.592Z,17.06
2022-09-25T08:23:03.745Z,17.12
2022-09-25T08:24:03.776Z,17.19
2022-09-25T08:25:03.757Z,17.31
2022-09-25T08:26:03.920Z,17.38
2022-09-25T08:27:03.833Z,17.38
2022-09-25T08:28:03.911Z,17.50
2022-09-25T08:29:03.910Z,17.56
2022-09-25T08:30:03.915Z,17.62
2022-09-25T08:31:03.983Z,17.69
2022-09-25T08:32:03.903Z,17.75
2022-09-25T08:33:03.985Z,17.75
2022-09-25T08:34:21.326Z,17.75
2022-09-25T08:35:03.898Z,17.81
2022-09-25T08:36:03.912Z,17.81
2022-09-25T08:37:03.907Z,17.88
2022-09-25T08:38:03.910Z,17.94
2022-09-25T08:39:03.986Z,17.94
2022-09-25T08:40:04.081Z,17.88
2022-09-25T08:41:04.414Z,17.88
2022-09-25T08:42:04.380Z,17.88
2022-09-25T08:43:03.590Z,17.94
2022-09-25T08:44:03.546Z,17.94
2022-09-25T08:45:20.364Z,18.00
2022-09-25T08:46:04.644Z,18.00
2022-09-25T08:47:03.510Z,18.06
2022-09-25T08:48:03.587Z,18.06
2022-09-25T08:49:04.154Z,18.12
2022-09-25T08:50:04.155Z,18.12
2022-09-25T08:51:04.257Z,18.12
2022-09-25T08:52:04.236Z,18.12
2022-09-25T08:53:04.147Z,18.19
2022-09-25T08:54:04.340Z,18.19
2022-09-25T08:55:04.244Z,18.19
2022-09-25T08:56:04.321Z,18.19
2022-09-25T08:57:04.320Z,18.19
2022-09-25T08:58:04.388Z,18.19
2022-09-25T08:59:04.472Z,18.19
2022-09-25T09:00:03.713Z,18.25
2022-09-25T09:01:04.342Z,18.19
2022-09-25T09:02:04.310Z,18.25
2022-09-25T09:03:04.397Z,18.25
2022-09-25T09:04:04.360Z,18.25
2022-09-25T09:05:03.668Z,18.19
2022-09-25T09:06:03.762Z,18.25
2022-09-25T09:07:25.560Z,18.19
2022-09-25T09:08:04.225Z,18.19
2022-09-25T09:09:03.750Z,18.19
2022-09-25T09:10:03.746Z,18.19
2022-09-25T09:11:03.751Z,18.19
2022-09-25T09:12:03.830Z,18.19
2022-09-25T09:13:03.827Z,18.12
2022-09-25T09:14:03.594Z,18.06
2022-09-25T09:15:03.667Z,18.06
2022-09-25T09:16:03.627Z,18.06
2022-09-25T09:17:03.911Z,18.12
2022-09-25T09:18:03.907Z,18.12
2022-09-25T09:19:03.912Z,18.12
2022-09-25T09:20:04.151Z,18.12
2022-09-25T09:21:03.909Z,18.12
2022-09-25T09:22:03.910Z,18.12
2022-09-25T09:23:03.918Z,18.12
2022-09-25T09:24:03.935Z,18.12
2022-09-25T09:25:03.754Z,18.12
2022-09-25T09:26:03.757Z,18.19
2022-09-25T09:27:03.677Z,18.19
2022-09-25T09:28:03.752Z,18.19
2022-09-25T09:29:03.681Z,18.19
2022-09-25T09:30:05.903Z,18.19
2022-09-25T09:31:04.551Z,18.19
2022-09-25T09:32:03.533Z,18.25
2022-09-25T09:33:03.690Z,18.25
2022-09-25T09:34:03.729Z,18.25
2022-09-25T09:35:06.614Z,18.31
2022-09-25T09:36:03.752Z,18.31
2022-09-25T09:37:03.747Z,18.31
2022-09-25T09:38:03.821Z,18.31
2022-09-25T09:39:03.998Z,18.38
2022-09-25T09:40:03.916Z,18.38
2022-09-25T09:41:03.990Z,18.38
2022-09-25T09:42:03.991Z,18.44
2022-09-25T09:43:04.071Z,18.44
2022-09-25T09:44:04.235Z,18.50
2022-09-25T09:45:04.302Z,18.50
2022-09-25T09:46:04.414Z,18.56
2022-09-25T09:47:03.521Z,18.56
2022-09-25T09:48:03.596Z,18.62
2022-09-25T09:49:03.669Z,18.62
2022-09-25T09:50:03.678Z,18.62
2022-09-25T09:51:03.752Z,18.69
2022-09-25T09:52:03.840Z,18.69
2022-09-25T09:53:03.747Z,18.69
2022-09-25T09:54:03.815Z,18.69
2022-09-25T09:55:03.909Z,18.69
2022-09-25T09:56:05.053Z,18.75
2022-09-25T09:57:04.229Z,18.75
2022-09-25T09:58:04.148Z,18.75
2022-09-25T09:59:04.082Z,18.69
2022-09-25T10:00:05.512Z,18.69
2022-09-25T10:01:16.174Z,18.69
2022-09-25T10:02:03.713Z,18.69
2022-09-25T10:03:03.848Z,18.62
2022-09-25T10:04:03.767Z,18.62
2022-09-25T10:05:03.761Z,18.69
2022-09-25T10:06:03.669Z,18.69
2022-09-25T10:07:03.680Z,18.75
2022-09-25T10:08:03.760Z,18.75
2022-09-25T10:09:03.582Z,18.75
2022-09-25T10:10:03.671Z,18.81
2022-09-25T10:11:03.746Z,18.88
2022-09-25T10:12:03.835Z,18.88
2022-09-25T10:13:06.245Z,18.94
2022-09-25T10:14:03.674Z,18.88
2022-09-25T10:15:04.021Z,18.94
2022-09-25T10:16:04.268Z,18.94
2022-09-25T10:17:04.389Z,18.94
2022-09-25T10:18:04.495Z,19.00
2022-09-25T10:19:03.530Z,19.00
2022-09-25T10:20:03.556Z,19.00
2022-09-25T10:21:03.517Z,19.06
2022-09-25T10:22:03.518Z,19.06
2022-09-25T10:23:03.588Z,19.12
2022-09-25T10:24:04.464Z,19.12
2022-09-25T10:25:04.473Z,19.12
2022-09-25T10:26:07.217Z,19.19
2022-09-25T10:27:03.591Z,19.19
2022-09-25T10:28:03.665Z,19.19
2022-09-25T10:29:03.758Z,19.19
2022-09-25T10:30:03.666Z,19.25
2022-09-25T10:31:03.749Z,19.25
2022-09-25T10:32:03.750Z,19.31
2022-09-25T10:33:03.830Z,19.31
2022-09-25T10:34:03.971Z,19.38
2022-09-25T10:35:03.900Z,19.38
2022-09-25T10:36:03.824Z,19.44
2022-09-25T10:37:03.912Z,19.44
2022-09-25T10:38:03.820Z,19.44
2022-09-25T10:39:24.357Z,19.44
2022-09-25T10:40:04.006Z,19.44
2022-09-25T10:41:04.076Z,19.50
2022-09-25T10:42:03.991Z,19.50
2022-09-25T10:43:04.060Z,19.56
2022-09-25T10:44:04.095Z,19.56
2022-09-25T10:45:04.073Z,19.62
2022-09-25T10:46:04.296Z,19.62
2022-09-25T10:47:04.221Z,19.62
2022-09-25T10:48:04.175Z,19.62
2022-09-25T10:49:04.161Z,19.62
2022-09-25T10:50:05.027Z,19.62
2022-09-25T10:51:04.316Z,19.62
2022-09-25T10:52:04.388Z,19.69
2022-09-25T10:53:04.480Z,19.69
2022-09-25T10:54:04.385Z,19.69
2022-09-25T10:55:04.396Z,19.62
2022-09-25T10:56:04.382Z,19.56
2022-09-25T10:57:04.387Z,19.50
2022-09-25T10:58:03.822Z,19.56
2022-09-25T10:59:03.512Z,19.56
2022-09-25T11:00:03.591Z,19.62
2022-09-25T11:01:03.619Z,19.62
2022-09-25T11:02:03.699Z,19.69
2022-09-25T11:03:03.690Z,19.69
2022-09-25T11:04:03.596Z,19.75
2022-09-25T11:05:03.701Z,19.81
2022-09-25T11:06:03.673Z,19.88
2022-09-25T11:07:03.743Z,19.88
2022-09-25T11:08:03.749Z,19.88
2022-09-25T11:09:04.422Z,19.94
2022-09-25T11:10:04.403Z,20.00
2022-09-25T11:11:04.386Z,20.00
2022-09-25T11:12:03.593Z,20.06
2022-09-25T11:13:03.495Z,20.06
2022-09-25T11:14:04.151Z,20.12
2022-09-25T11:15:04.147Z,20.12
2022-09-25T11:16:04.305Z,20.12
2022-09-25T11:17:04.449Z,20.12
2022-09-25T11:18:04.398Z,20.06
2022-09-25T11:19:04.798Z,20.00
2022-09-25T11:20:04.387Z,20.00
2022-09-25T11:21:03.592Z,20.00
2022-09-25T11:22:03.683Z,19.94
2022-09-25T11:23:03.676Z,19.94
2022-09-25T11:24:03.749Z,19.94
2022-09-25T11:25:03.668Z,20.00
2022-09-25T11:26:03.739Z,20.00
2022-09-25T11:27:03.741Z,19.94
2022-09-25T11:28:03.846Z,19.94
2022-09-25T11:29:03.739Z,19.94
2022-09-25T11:30:03.905Z,20.00
2022-09-25T11:31:04.142Z,20.06
2022-09-25T11:32:03.987Z,20.06
2022-09-25T11:33:04.066Z,20.12
2022-09-25T11:34:04.224Z,20.06
2022-09-25T11:35:04.337Z,20.12
2022-09-25T11:36:04.312Z,20.12
2022-09-25T11:37:04.318Z,20.12
2022-09-25T11:38:04.216Z,20.12
2022-09-25T11:39:04.384Z,20.19
2022-09-25T11:40:04.318Z,20.19
2022-09-25T11:41:03.500Z,20.19
2022-09-25T11:42:03.504Z,20.19
2022-09-25T11:43:03.583Z,20.12
2022-09-25T11:44:03.581Z,20.06
2022-09-25T11:45:03.662Z,20.06
2022-09-25T11:46:03.756Z,20.12
2022-09-25T11:47:04.305Z,20.19
2022-09-25T11:48:04.298Z,20.19
2022-09-25T11:49:07.361Z,20.19
2022-09-25T11:50:04.388Z,20.25
2022-09-25T11:51:04.375Z,20.25
2022-09-25T11:52:03.530Z,20.31
2022-09-25T11:53:03.597Z,20.31
2022-09-25T11:54:18.157Z,20.38
2022-09-25T11:55:03.604Z,20.38
2022-09-25T11:56:03.595Z,20.44
2022-09-25T11:57:03.677Z,20.44
2022-09-25T11:58:03.499Z,20.44
2022-09-25T11:59:03.604Z,20.44
2022-09-25T12:00:03.508Z,20.50
2022-09-25T12:01:03.687Z,20.50
2022-09-25T12:02:03.744Z,20.50
2022-09-25T12:03:03.820Z,20.50
2022-09-25T12:04:03.947Z,20.44
2022-09-25T12:05:04.068Z,20.38
2022-09-25T12:06:04.061Z,20.31
2022-09-25T12:07:04.072Z,20.31
2022-09-25T12:08:04.239Z,20.25
2022-09-25T12:09:04.223Z,20.31
2022-09-25T12:10:04.161Z,20.25
2022-09-25T12:11:04.326Z,20.31
2022-09-25T12:12:04.308Z,20.38
2022-09-25T12:13:04.463Z,20.44
2022-09-25T12:14:04.439Z,20.44
2022-09-25T12:15:04.391Z,20.44
2022-09-25T12:16:04.359Z,20.44
2022-09-25T12:17:04.306Z,20.44
2022-09-25T12:18:04.382Z,20.50
2022-09-25T12:19:03.507Z,20.56
2022-09-25T12:20:03.584Z,20.56
2022-09-25T12:21:03.589Z,20.62
2022-09-25T12:22:03.515Z,20.69
2022-09-25T12:23:03.591Z,20.69
2022-09-25T12:24:04.517Z,20.69
2022-09-25T12:25:03.515Z,20.69
2022-09-25T12:26:04.469Z,20.75
2022-09-25T12:27:03.583Z,20.75
2022-09-25T12:28:03.588Z,20.75
2022-09-25T12:29:03.660Z,20.81
2022-09-25T12:30:03.671Z,20.81
2022-09-25T12:31:05.535Z,20.81
2022-09-25T12:32:03.742Z,20.88
2022-09-25T12:33:03.756Z,20.94
2022-09-25T12:34:03.981Z,20.94
2022-09-25T12:35:03.918Z,21.00
2022-09-25T12:36:03.834Z,21.00
2022-09-25T12:37:03.906Z,21.00
2022-09-25T12:38:04.071Z,21.00
2022-09-25T12:39:03.993Z,21.00
2022-09-25T12:40:04.069Z,21.00
2022-09-25T12:41:04.140Z,20.94
2022-09-25T12:42:04.062Z,20.81
2022-09-25T12:43:04.143Z,20.75
2022-09-25T12:44:04.359Z,20.69
2022-09-25T12:45:04.230Z,20.62
2022-09-25T12:46:04.292Z,20.69
2022-09-25T12:47:04.393Z,20.75
2022-09-25T12:48:04.381Z,20.75
2022-09-25T12:49:04.487Z,20.75
2022-09-25T12:50:04.484Z,20.62
2022-09-25T12:51:05.276Z,20.56
2022-09-25T12:52:04.482Z,20.62
2022-09-25T12:53:04.387Z,20.50